sensor_id;sensor_type;location;lat;lon;timestamp;P1;durP1;ratioP1;P2;durP2;ratioP2
17451;SDS011;8843;48.838;9.324;2023-12-14T00:02:00;1.70;;;1.60;;
17451;SDS011;8843;48.838;9.324;2023-12-14T00:04:27;3.23;;;1.97;;
17451;SDS011;8843;48.838;9.324;2023-12-14T00:06:55;2.03;;;1.93;;
17451;SDS011;8843;48.838;9.324;2023-12-14T00:09:22;2.17;;;1.97;;
17451;SDS011;8843;48.838;9.324;2023-12-14T00:11:49;2.40;;;2.07;;
17451;SDS011;8843;48.838;9.324;2023-12-14T00:14:15;2.17;;;1.97;;
17451;SDS011;8843;48.838;9.324;2023-12-14T00:16:42;2.03;;;1.87;;
17451;SDS011;8843;48.838;9.324;2023-12-14T00:19:09;2.17;;;1.97;;
17451;SDS011;8843;48.838;9.324;2023-12-14T00:21:36;1.73;;;1.63;;
17451;SDS011;8843;48.838;9.324;2023-12-14T00:24:04;1.87;;;1.77;;
17451;SDS011;8843;48.838;9.324;2023-12-14T00:26:31;1.60;;;1.50;;
17451;SDS011;8843;48.838;9.324;2023-12-14T00:28:58;2.13;;;2.00;;
17451;SDS011;8843;48.838;9.324;2023-12-14T00:31:25;2.03;;;1.93;;
17451;SDS011;8843;48.838;9.324;2023-12-14T00:33:52;2.13;;;1.83;;
17451;SDS011;8843;48.838;9.324;2023-12-14T00:36:19;3.03;;;1.87;;
17451;SDS011;8843;48.838;9.324;2023-12-14T00:38:46;2.10;;;1.70;;
17451;SDS011;8843;48.838;9.324;2023-12-14T00:41:14;1.97;;;1.80;;
17451;SDS011;8843;48.838;9.324;2023-12-14T00:43:41;1.97;;;1.47;;
17451;SDS011;8843;48.838;9.324;2023-12-14T00:46:08;3.83;;;1.70;;
17451;SDS011;8843;48.838;9.324;2023-12-14T00:48:36;1.97;;;1.43;;
17451;SDS011;8843;48.838;9.324;2023-12-14T00:51:03;3.33;;;1.93;;
17451;SDS011;8843;48.838;9.324;2023-12-14T00:53:30;1.60;;;1.50;;
17451;SDS011;8843;48.838;9.324;2023-12-14T00:55:57;1.90;;;1.80;;
17451;SDS011;8843;48.838;9.324;2023-12-14T00:58:25;2.00;;;1.80;;
17451;SDS011;8843;48.838;9.324;2023-12-14T01:00:52;3.13;;;1.80;;
17451;SDS011;8843;48.838;9.324;2023-12-14T01:03:19;1.80;;;1.70;;
17451;SDS011;8843;48.838;9.324;2023-12-14T01:05:46;1.67;;;1.57;;
17451;SDS011;8843;48.838;9.324;2023-12-14T01:08:13;2.37;;;1.70;;
17451;SDS011;8843;48.838;9.324;2023-12-14T01:10:41;1.57;;;1.47;;
17451;SDS011;8843;48.838;9.324;2023-12-14T01:13:07;1.60;;;1.50;;
17451;SDS011;8843;48.838;9.324;2023-12-14T01:15:36;2.00;;;1.70;;
17451;SDS011;8843;48.838;9.324;2023-12-14T01:18:03;1.60;;;1.50;;
17451;SDS011;8843;48.838;9.324;2023-12-14T01:20:30;1.70;;;1.60;;
17451;SDS011;8843;48.838;9.324;2023-12-14T01:22:56;1.87;;;1.67;;
17451;SDS011;8843;48.838;9.324;2023-12-14T01:25:23;1.80;;;1.70;;
17451;SDS011;8843;48.838;9.324;2023-12-14T01:27:50;1.93;;;1.80;;
17451;SDS011;8843;48.838;9.324;2023-12-14T01:30:17;2.47;;;1.70;;
17451;SDS011;8843;48.838;9.324;2023-12-14T01:32:45;1.70;;;1.60;;
17451;SDS011;8843;48.838;9.324;2023-12-14T01:35:12;3.33;;;2.00;;
17451;SDS011;8843;48.838;9.324;2023-12-14T01:37:39;1.83;;;1.60;;
17451;SDS011;8843;48.838;9.324;2023-12-14T01:40:06;2.50;;;1.73;;
17451;SDS011;8843;48.838;9.324;2023-12-14T01:42:34;1.80;;;1.70;;
17451;SDS011;8843;48.838;9.324;2023-12-14T01:45:01;2.00;;;1.80;;
17451;SDS011;8843;48.838;9.324;2023-12-14T01:47:27;1.20;;;1.20;;
17451;SDS011;8843;48.838;9.324;2023-12-14T01:49:55;2.07;;;1.87;;
17451;SDS011;8843;48.838;9.324;2023-12-14T01:52:22;2.23;;;1.67;;
17451;SDS011;8843;48.838;9.324;2023-12-14T01:54:49;2.00;;;1.90;;
17451;SDS011;8843;48.838;9.324;2023-12-14T01:57:15;1.60;;;1.50;;
17451;SDS011;8843;48.838;9.324;2023-12-14T01:59:42;2.47;;;1.60;;
17451;SDS011;8843;48.838;9.324;2023-12-14T02:02:09;2.33;;;1.70;;
17451;SDS011;8843;48.838;9.324;2023-12-14T02:04:36;2.77;;;1.70;;
17451;SDS011;8843;48.838;9.324;2023-12-14T02:07:04;1.90;;;1.80;;
17451;SDS011;8843;48.838;9.324;2023-12-14T02:09:31;1.73;;;1.63;;
17451;SDS011;8843;48.838;9.324;2023-12-14T02:11:58;2.03;;;1.80;;
17451;SDS011;8843;48.838;9.324;2023-12-14T02:14:25;3.10;;;1.63;;
17451;SDS011;8843;48.838;9.324;2023-12-14T02:16:52;1.90;;;1.80;;
17451;SDS011;8843;48.838;9.324;2023-12-14T02:19:18;1.73;;;1.63;;
17451;SDS011;8843;48.838;9.324;2023-12-14T02:21:45;2.00;;;1.80;;
17451;SDS011;8843;48.838;9.324;2023-12-14T02:24:13;3.03;;;2.03;;
17451;SDS011;8843;48.838;9.324;2023-12-14T02:26:40;3.20;;;1.83;;
17451;SDS011;8843;48.838;9.324;2023-12-14T02:29:07;3.23;;;2.07;;
17451;SDS011;8843;48.838;9.324;2023-12-14T02:31:34;5.20;;;2.00;;
17451;SDS011;8843;48.838;9.324;2023-12-14T02:34:01;3.47;;;1.90;;
17451;SDS011;8843;48.838;9.324;2023-12-14T02:36:28;1.60;;;1.50;;
17451;SDS011;8843;48.838;9.324;2023-12-14T02:38:54;1.73;;;1.63;;
17451;SDS011;8843;48.838;9.324;2023-12-14T02:41:23;1.60;;;1.50;;
17451;SDS011;8843;48.838;9.324;2023-12-14T02:43:49;2.23;;;2.03;;
17451;SDS011;8843;48.838;9.324;2023-12-14T02:46:16;2.83;;;2.00;;
17451;SDS011;8843;48.838;9.324;2023-12-14T02:48:43;2.17;;;1.83;;
17451;SDS011;8843;48.838;9.324;2023-12-14T02:51:12;2.37;;;2.17;;
17451;SDS011;8843;48.838;9.324;2023-12-14T02:53:40;2.50;;;2.30;;
17451;SDS011;8843;48.838;9.324;2023-12-14T02:56:08;2.63;;;2.03;;
17451;SDS011;8843;48.838;9.324;2023-12-14T02:58:37;1.80;;;1.70;;
17451;SDS011;8843;48.838;9.324;2023-12-14T03:01:04;2.00;;;1.80;;
17451;SDS011;8843;48.838;9.324;2023-12-14T03:03:31;1.73;;;1.63;;
17451;SDS011;8843;48.838;9.324;2023-12-14T03:05:58;4.57;;;2.10;;
17451;SDS011;8843;48.838;9.324;2023-12-14T03:08:24;2.47;;;2.20;;
17451;SDS011;8843;48.838;9.324;2023-12-14T03:10:51;1.70;;;1.47;;
17451;SDS011;8843;48.838;9.324;2023-12-14T03:13:18;2.20;;;2.00;;
17451;SDS011;8843;48.838;9.324;2023-12-14T03:15:46;3.57;;;1.80;;
17451;SDS011;8843;48.838;9.324;2023-12-14T03:18:14;1.60;;;1.50;;
17451;SDS011;8843;48.838;9.324;2023-12-14T03:20:41;4.93;;;1.80;;
17451;SDS011;8843;48.838;9.324;2023-12-14T03:23:08;1.83;;;1.73;;
17451;SDS011;8843;48.838;9.324;2023-12-14T03:25:35;1.60;;;1.50;;
17451;SDS011;8843;48.838;9.324;2023-12-14T03:28:02;1.80;;;1.70;;
17451;SDS011;8843;48.838;9.324;2023-12-14T03:30:29;3.33;;;2.23;;
17451;SDS011;8843;48.838;9.324;2023-12-14T03:32:57;2.57;;;2.37;;
17451;SDS011;8843;48.838;9.324;2023-12-14T03:35:24;2.10;;;1.90;;
17451;SDS011;8843;48.838;9.324;2023-12-14T03:37:51;2.00;;;1.80;;
17451;SDS011;8843;48.838;9.324;2023-12-14T03:40:17;2.40;;;2.20;;
17451;SDS011;8843;48.838;9.324;2023-12-14T03:42:44;2.10;;;1.90;;
17451;SDS011;8843;48.838;9.324;2023-12-14T03:45:11;2.23;;;2.03;;
17451;SDS011;8843;48.838;9.324;2023-12-14T03:47:38;2.23;;;1.93;;
17451;SDS011;8843;48.838;9.324;2023-12-14T03:50:07;2.20;;;2.00;;
17451;SDS011;8843;48.838;9.324;2023-12-14T03:52:36;2.53;;;2.27;;
17451;SDS011;8843;48.838;9.324;2023-12-14T03:55:04;2.23;;;2.00;;
17451;SDS011;8843;48.838;9.324;2023-12-14T03:57:31;2.00;;;1.90;;
17451;SDS011;8843;48.838;9.324;2023-12-14T03:59:58;1.87;;;1.77;;
17451;SDS011;8843;48.838;9.324;2023-12-14T04:02:25;1.90;;;1.80;;
17451;SDS011;8843;48.838;9.324;2023-12-14T04:04:52;1.93;;;1.80;;
17451;SDS011;8843;48.838;9.324;2023-12-14T04:07:20;2.90;;;1.73;;
17451;SDS011;8843;48.838;9.324;2023-12-14T04:09:47;2.40;;;2.20;;
17451;SDS011;8843;48.838;9.324;2023-12-14T04:12:14;1.83;;;1.67;;
17451;SDS011;8843;48.838;9.324;2023-12-14T04:14:41;2.27;;;2.07;;
17451;SDS011;8843;48.838;9.324;2023-12-14T04:17:08;2.37;;;2.00;;
17451;SDS011;8843;48.838;9.324;2023-12-14T04:19:35;2.37;;;2.17;;
17451;SDS011;8843;48.838;9.324;2023-12-14T04:22:03;2.50;;;2.30;;
17451;SDS011;8843;48.838;9.324;2023-12-14T04:24:32;2.30;;;2.10;;
17451;SDS011;8843;48.838;9.324;2023-12-14T04:26:58;9.20;;;2.33;;
17451;SDS011;8843;48.838;9.324;2023-12-14T04:29:25;2.33;;;2.10;;
17451;SDS011;8843;48.838;9.324;2023-12-14T04:31:52;2.13;;;1.80;;
17451;SDS011;8843;48.838;9.324;2023-12-14T04:34:19;3.73;;;2.00;;
17451;SDS011;8843;48.838;9.324;2023-12-14T04:36:46;6.13;;;2.50;;
17451;SDS011;8843;48.838;9.324;2023-12-14T04:39:14;2.60;;;2.07;;
17451;SDS011;8843;48.838;9.324;2023-12-14T04:41:43;2.20;;;2.10;;
17451;SDS011;8843;48.838;9.324;2023-12-14T04:44:10;4.00;;;2.00;;
17451;SDS011;8843;48.838;9.324;2023-12-14T04:46:37;1.90;;;1.80;;
17451;SDS011;8843;48.838;9.324;2023-12-14T04:49:03;2.37;;;2.17;;
17451;SDS011;8843;48.838;9.324;2023-12-14T04:51:30;2.03;;;1.60;;
17451;SDS011;8843;48.838;9.324;2023-12-14T04:53:58;1.97;;;1.87;;
17451;SDS011;8843;48.838;9.324;2023-12-14T04:56:25;3.23;;;1.90;;
17451;SDS011;8843;48.838;9.324;2023-12-14T04:58:53;2.37;;;2.10;;
17451;SDS011;8843;48.838;9.324;2023-12-14T05:01:20;4.43;;;1.93;;
17451;SDS011;8843;48.838;9.324;2023-12-14T05:03:46;2.37;;;2.00;;
17451;SDS011;8843;48.838;9.324;2023-12-14T05:06:13;4.30;;;2.03;;
17451;SDS011;8843;48.838;9.324;2023-12-14T05:08:40;1.90;;;1.80;;
17451;SDS011;8843;48.838;9.324;2023-12-14T05:11:07;2.60;;;2.03;;
17451;SDS011;8843;48.838;9.324;2023-12-14T05:13:34;2.23;;;2.03;;
17451;SDS011;8843;48.838;9.324;2023-12-14T05:16:02;2.87;;;2.00;;
17451;SDS011;8843;48.838;9.324;2023-12-14T05:18:30;2.40;;;2.20;;
17451;SDS011;8843;48.838;9.324;2023-12-14T05:20:56;1.87;;;1.77;;
17451;SDS011;8843;48.838;9.324;2023-12-14T05:23:23;2.10;;;1.90;;
17451;SDS011;8843;48.838;9.324;2023-12-14T05:25:50;2.93;;;2.20;;
17451;SDS011;8843;48.838;9.324;2023-12-14T05:28:17;2.30;;;2.10;;
17451;SDS011;8843;48.838;9.324;2023-12-14T05:30:44;3.93;;;2.20;;
17451;SDS011;8843;48.838;9.324;2023-12-14T05:33:12;2.10;;;1.90;;
17451;SDS011;8843;48.838;9.324;2023-12-14T05:35:39;2.13;;;1.93;;
17451;SDS011;8843;48.838;9.324;2023-12-14T05:38:06;2.40;;;2.20;;
17451;SDS011;8843;48.838;9.324;2023-12-14T05:40:33;3.27;;;2.30;;
17451;SDS011;8843;48.838;9.324;2023-12-14T05:42:59;3.40;;;2.40;;
17451;SDS011;8843;48.838;9.324;2023-12-14T05:45:26;2.50;;;2.30;;
17451;SDS011;8843;48.838;9.324;2023-12-14T05:47:53;2.57;;;1.77;;
17451;SDS011;8843;48.838;9.324;2023-12-14T05:50:21;2.20;;;2.00;;
17451;SDS011;8843;48.838;9.324;2023-12-14T05:52:48;1.33;;;1.23;;
17451;SDS011;8843;48.838;9.324;2023-12-14T05:55:16;2.67;;;2.10;;
17451;SDS011;8843;48.838;9.324;2023-12-14T05:57:46;2.80;;;2.57;;
17451;SDS011;8843;48.838;9.324;2023-12-14T06:00:13;3.23;;;2.40;;
17451;SDS011;8843;48.838;9.324;2023-12-14T06:02:40;5.20;;;2.53;;
17451;SDS011;8843;48.838;9.324;2023-12-14T06:05:08;4.23;;;2.70;;
17451;SDS011;8843;48.838;9.324;2023-12-14T06:07:36;2.70;;;2.50;;
17451;SDS011;8843;48.838;9.324;2023-12-14T06:10:04;3.53;;;2.83;;
17451;SDS011;8843;48.838;9.324;2023-12-14T06:12:31;3.10;;;2.70;;
17451;SDS011;8843;48.838;9.324;2023-12-14T06:14:58;3.87;;;2.80;;
17451;SDS011;8843;48.838;9.324;2023-12-14T06:17:25;2.70;;;2.30;;
17451;SDS011;8843;48.838;9.324;2023-12-14T06:19:52;3.27;;;2.90;;
17451;SDS011;8843;48.838;9.324;2023-12-14T06:22:19;4.80;;;2.50;;
17451;SDS011;8843;48.838;9.324;2023-12-14T06:24:47;3.10;;;2.80;;
17451;SDS011;8843;48.838;9.324;2023-12-14T06:27:14;3.73;;;2.53;;
17451;SDS011;8843;48.838;9.324;2023-12-14T06:29:41;5.33;;;2.93;;
17451;SDS011;8843;48.838;9.324;2023-12-14T06:32:08;5.10;;;3.43;;
17451;SDS011;8843;48.838;9.324;2023-12-14T06:34:39;4.03;;;3.60;;
17451;SDS011;8843;48.838;9.324;2023-12-14T06:37:05;5.00;;;3.00;;
17451;SDS011;8843;48.838;9.324;2023-12-14T06:39:36;5.10;;;3.00;;
17451;SDS011;8843;48.838;9.324;2023-12-14T06:42:04;5.23;;;3.07;;
17451;SDS011;8843;48.838;9.324;2023-12-14T06:44:31;3.33;;;3.00;;
17451;SDS011;8843;48.838;9.324;2023-12-14T06:46:58;3.00;;;2.53;;
17451;SDS011;8843;48.838;9.324;2023-12-14T06:49:25;3.57;;;2.87;;
17451;SDS011;8843;48.838;9.324;2023-12-14T06:51:52;2.93;;;2.63;;
17451;SDS011;8843;48.838;9.324;2023-12-14T06:54:18;4.70;;;3.10;;
17451;SDS011;8843;48.838;9.324;2023-12-14T06:56:45;3.40;;;2.70;;
17451;SDS011;8843;48.838;9.324;2023-12-14T06:59:14;4.43;;;3.23;;
17451;SDS011;8843;48.838;9.324;2023-12-14T07:01:41;3.43;;;3.10;;
17451;SDS011;8843;48.838;9.324;2023-12-14T07:04:08;3.80;;;3.40;;
17451;SDS011;8843;48.838;9.324;2023-12-14T07:06:35;5.27;;;3.10;;
17451;SDS011;8843;48.838;9.324;2023-12-14T07:09:02;6.07;;;3.33;;
17451;SDS011;8843;48.838;9.324;2023-12-14T07:11:30;4.93;;;3.30;;
17451;SDS011;8843;48.838;9.324;2023-12-14T07:13:57;3.70;;;3.30;;
17451;SDS011;8843;48.838;9.324;2023-12-14T07:16:25;5.13;;;3.53;;
17451;SDS011;8843;48.838;9.324;2023-12-14T07:18:52;3.90;;;3.50;;
17451;SDS011;8843;48.838;9.324;2023-12-14T07:21:19;4.77;;;3.90;;
17451;SDS011;8843;48.838;9.324;2023-12-14T07:23:47;6.23;;;3.83;;
17451;SDS011;8843;48.838;9.324;2023-12-14T07:26:14;4.90;;;4.00;;
17451;SDS011;8843;48.838;9.324;2023-12-14T07:28:41;5.03;;;3.33;;
17451;SDS011;8843;48.838;9.324;2023-12-14T07:31:08;8.33;;;3.77;;
17451;SDS011;8843;48.838;9.324;2023-12-14T07:33:36;5.90;;;4.00;;
17451;SDS011;8843;48.838;9.324;2023-12-14T07:36:04;5.03;;;4.10;;
17451;SDS011;8843;48.838;9.324;2023-12-14T07:38:47;7.77;;;5.20;;
17451;SDS011;8843;48.838;9.324;2023-12-14T07:41:14;6.23;;;4.20;;
17451;SDS011;8843;48.838;9.324;2023-12-14T07:43:41;4.70;;;4.20;;
17451;SDS011;8843;48.838;9.324;2023-12-14T07:46:08;5.00;;;3.97;;
17451;SDS011;8843;48.838;9.324;2023-12-14T07:48:36;5.17;;;4.20;;
17451;SDS011;8843;48.838;9.324;2023-12-14T07:51:03;7.53;;;4.43;;
17451;SDS011;8843;48.838;9.324;2023-12-14T07:53:30;5.57;;;3.97;;
17451;SDS011;8843;48.838;9.324;2023-12-14T07:55:57;5.57;;;4.70;;
17451;SDS011;8843;48.838;9.324;2023-12-14T07:58:27;5.03;;;3.90;;
17451;SDS011;8843;48.838;9.324;2023-12-14T08:00:54;4.33;;;3.90;;
17451;SDS011;8843;48.838;9.324;2023-12-14T08:03:21;6.63;;;4.33;;
17451;SDS011;8843;48.838;9.324;2023-12-14T08:05:49;8.80;;;4.40;;
17451;SDS011;8843;48.838;9.324;2023-12-14T08:08:16;7.37;;;4.93;;
17451;SDS011;8843;48.838;9.324;2023-12-14T08:10:43;4.30;;;3.47;;
17451;SDS011;8843;48.838;9.324;2023-12-14T08:13:10;4.27;;;3.70;;
17451;SDS011;8843;48.838;9.324;2023-12-14T08:15:37;4.87;;;3.50;;
17451;SDS011;8843;48.838;9.324;2023-12-14T08:18:04;6.13;;;4.60;;
17451;SDS011;8843;48.838;9.324;2023-12-14T08:20:31;8.47;;;4.90;;
17451;SDS011;8843;48.838;9.324;2023-12-14T08:22:59;9.47;;;5.57;;
17451;SDS011;8843;48.838;9.324;2023-12-14T08:25:26;5.03;;;3.83;;
17451;SDS011;8843;48.838;9.324;2023-12-14T08:27:53;7.33;;;5.10;;
17451;SDS011;8843;48.838;9.324;2023-12-14T08:30:19;7.87;;;5.80;;
17451;SDS011;8843;48.838;9.324;2023-12-14T08:32:48;6.83;;;5.17;;
17451;SDS011;8843;48.838;9.324;2023-12-14T08:35:15;8.17;;;6.33;;
17451;SDS011;8843;48.838;9.324;2023-12-14T08:37:42;9.43;;;6.80;;
17451;SDS011;8843;48.838;9.324;2023-12-14T08:40:11;7.03;;;5.40;;
17451;SDS011;8843;48.838;9.324;2023-12-14T08:42:39;7.17;;;4.83;;
17451;SDS011;8843;48.838;9.324;2023-12-14T08:45:07;8.77;;;6.53;;
17451;SDS011;8843;48.838;9.324;2023-12-14T08:47:36;8.43;;;5.63;;
17451;SDS011;8843;48.838;9.324;2023-12-14T08:50:03;9.57;;;6.87;;
17451;SDS011;8843;48.838;9.324;2023-12-14T08:52:31;8.57;;;6.33;;
17451;SDS011;8843;48.838;9.324;2023-12-14T08:54:58;9.87;;;7.43;;
17451;SDS011;8843;48.838;9.324;2023-12-14T08:57:27;10.80;;;8.00;;
17451;SDS011;8843;48.838;9.324;2023-12-14T08:59:54;10.77;;;7.77;;
17451;SDS011;8843;48.838;9.324;2023-12-14T09:02:21;12.53;;;9.30;;
17451;SDS011;8843;48.838;9.324;2023-12-14T09:04:48;12.47;;;9.47;;
17451;SDS011;8843;48.838;9.324;2023-12-14T09:07:16;13.27;;;9.43;;
17451;SDS011;8843;48.838;9.324;2023-12-14T09:09:43;13.83;;;8.23;;
17451;SDS011;8843;48.838;9.324;2023-12-14T09:12:10;13.63;;;9.10;;
17451;SDS011;8843;48.838;9.324;2023-12-14T09:14:38;15.10;;;9.70;;
17451;SDS011;8843;48.838;9.324;2023-12-14T09:17:05;12.27;;;8.43;;
17451;SDS011;8843;48.838;9.324;2023-12-14T09:19:32;11.07;;;7.97;;
17451;SDS011;8843;48.838;9.324;2023-12-14T09:21:59;13.93;;;9.73;;
17451;SDS011;8843;48.838;9.324;2023-12-14T09:24:26;15.80;;;9.40;;
17451;SDS011;8843;48.838;9.324;2023-12-14T09:26:53;16.97;;;10.00;;
17451;SDS011;8843;48.838;9.324;2023-12-14T09:29:20;15.47;;;9.73;;
17451;SDS011;8843;48.838;9.324;2023-12-14T09:31:49;14.30;;;10.47;;
17451;SDS011;8843;48.838;9.324;2023-12-14T09:34:16;17.00;;;11.17;;
17451;SDS011;8843;48.838;9.324;2023-12-14T09:36:43;15.10;;;10.77;;
17451;SDS011;8843;48.838;9.324;2023-12-14T09:39:10;20.17;;;11.87;;
17451;SDS011;8843;48.838;9.324;2023-12-14T09:41:37;16.93;;;11.80;;
17451;SDS011;8843;48.838;9.324;2023-12-14T09:44:04;17.03;;;11.80;;
17451;SDS011;8843;48.838;9.324;2023-12-14T09:46:31;21.83;;;12.10;;
17451;SDS011;8843;48.838;9.324;2023-12-14T09:49:01;16.73;;;10.23;;
17451;SDS011;8843;48.838;9.324;2023-12-14T09:51:29;19.07;;;11.50;;
17451;SDS011;8843;48.838;9.324;2023-12-14T09:53:56;18.93;;;11.87;;
17451;SDS011;8843;48.838;9.324;2023-12-14T09:56:24;20.97;;;12.00;;
17451;SDS011;8843;48.838;9.324;2023-12-14T09:58:51;21.53;;;13.83;;
17451;SDS011;8843;48.838;9.324;2023-12-14T10:01:21;20.43;;;12.80;;
17451;SDS011;8843;48.838;9.324;2023-12-14T10:03:49;22.13;;;14.00;;
17451;SDS011;8843;48.838;9.324;2023-12-14T10:06:18;22.30;;;13.37;;
17451;SDS011;8843;48.838;9.324;2023-12-14T10:08:53;21.57;;;12.60;;
17451;SDS011;8843;48.838;9.324;2023-12-14T10:11:21;20.17;;;11.97;;
17451;SDS011;8843;48.838;9.324;2023-12-14T10:13:48;21.33;;;12.73;;
17451;SDS011;8843;48.838;9.324;2023-12-14T10:16:26;23.90;;;14.30;;
17451;SDS011;8843;48.838;9.324;2023-12-14T10:18:55;21.90;;;13.60;;
17451;SDS011;8843;48.838;9.324;2023-12-14T10:21:23;22.77;;;13.93;;
17451;SDS011;8843;48.838;9.324;2023-12-14T10:23:50;25.63;;;14.37;;
17451;SDS011;8843;48.838;9.324;2023-12-14T10:26:17;25.17;;;13.67;;
17451;SDS011;8843;48.838;9.324;2023-12-14T10:28:44;24.27;;;12.90;;
17451;SDS011;8843;48.838;9.324;2023-12-14T10:31:11;23.27;;;13.27;;
17451;SDS011;8843;48.838;9.324;2023-12-14T10:33:38;28.27;;;16.93;;
17451;SDS011;8843;48.838;9.324;2023-12-14T10:36:05;29.13;;;15.10;;
17451;SDS011;8843;48.838;9.324;2023-12-14T10:38:35;30.47;;;16.37;;
17451;SDS011;8843;48.838;9.324;2023-12-14T10:41:04;26.17;;;14.20;;
17451;SDS011;8843;48.838;9.324;2023-12-14T10:43:32;27.30;;;14.13;;
17451;SDS011;8843;48.838;9.324;2023-12-14T10:46:08;27.57;;;14.20;;
17451;SDS011;8843;48.838;9.324;2023-12-14T10:48:49;28.70;;;16.13;;
17451;SDS011;8843;48.838;9.324;2023-12-14T10:51:21;22.90;;;13.77;;
17451;SDS011;8843;48.838;9.324;2023-12-14T10:53:53;23.90;;;14.70;;
17451;SDS011;8843;48.838;9.324;2023-12-14T10:56:22;25.20;;;14.27;;
17451;SDS011;8843;48.838;9.324;2023-12-14T10:58:51;25.87;;;14.37;;
17451;SDS011;8843;48.838;9.324;2023-12-14T11:01:19;22.30;;;13.27;;
17451;SDS011;8843;48.838;9.324;2023-12-14T11:03:47;24.27;;;13.90;;
17451;SDS011;8843;48.838;9.324;2023-12-14T11:06:29;25.20;;;13.83;;
17451;SDS011;8843;48.838;9.324;2023-12-14T11:08:58;23.63;;;14.40;;
17451;SDS011;8843;48.838;9.324;2023-12-14T11:11:31;24.73;;;13.67;;
17451;SDS011;8843;48.838;9.324;2023-12-14T11:14:06;24.57;;;13.23;;
17451;SDS011;8843;48.838;9.324;2023-12-14T11:16:34;25.00;;;14.63;;
17451;SDS011;8843;48.838;9.324;2023-12-14T11:24:53;23.07;;;13.20;;
17451;SDS011;8843;48.838;9.324;2023-12-14T11:27:28;22.87;;;12.93;;
17451;SDS011;8843;48.838;9.324;2023-12-14T11:29:55;21.17;;;12.13;;
17451;SDS011;8843;48.838;9.324;2023-12-14T11:32:24;27.13;;;13.53;;
17451;SDS011;8843;48.838;9.324;2023-12-14T11:34:51;33.40;;;18.20;;
17451;SDS011;8843;48.838;9.324;2023-12-14T11:37:18;25.00;;;14.43;;
17451;SDS011;8843;48.838;9.324;2023-12-14T11:39:48;24.33;;;13.77;;
17451;SDS011;8843;48.838;9.324;2023-12-14T11:42:17;26.20;;;12.93;;
17451;SDS011;8843;48.838;9.324;2023-12-14T11:44:45;23.83;;;13.17;;
17451;SDS011;8843;48.838;9.324;2023-12-14T11:47:12;23.87;;;12.70;;
17451;SDS011;8843;48.838;9.324;2023-12-14T11:49:39;24.13;;;13.30;;
17451;SDS011;8843;48.838;9.324;2023-12-14T11:52:05;25.33;;;14.03;;
17451;SDS011;8843;48.838;9.324;2023-12-14T11:54:34;30.60;;;14.10;;
17451;SDS011;8843;48.838;9.324;2023-12-14T11:57:01;26.80;;;14.07;;
17451;SDS011;8843;48.838;9.324;2023-12-14T11:59:30;24.83;;;13.00;;
17451;SDS011;8843;48.838;9.324;2023-12-14T12:01:58;33.27;;;15.43;;
17451;SDS011;8843;48.838;9.324;2023-12-14T12:04:27;24.90;;;13.63;;
17451;SDS011;8843;48.838;9.324;2023-12-14T12:06:58;27.23;;;14.77;;
17451;SDS011;8843;48.838;9.324;2023-12-14T12:09:36;24.20;;;14.10;;
17451;SDS011;8843;48.838;9.324;2023-12-14T12:12:07;29.37;;;14.77;;
17451;SDS011;8843;48.838;9.324;2023-12-14T12:14:36;26.23;;;14.93;;
17451;SDS011;8843;48.838;9.324;2023-12-14T12:17:04;32.40;;;15.37;;
17451;SDS011;8843;48.838;9.324;2023-12-14T12:19:32;33.87;;;15.10;;
17451;SDS011;8843;48.838;9.324;2023-12-14T12:21:59;31.80;;;15.53;;
17451;SDS011;8843;48.838;9.324;2023-12-14T12:24:26;34.83;;;15.73;;
17451;SDS011;8843;48.838;9.324;2023-12-14T12:26:53;29.77;;;14.20;;
17451;SDS011;8843;48.838;9.324;2023-12-14T12:29:20;28.63;;;14.60;;
17451;SDS011;8843;48.838;9.324;2023-12-14T12:31:49;25.80;;;13.00;;
17451;SDS011;8843;48.838;9.324;2023-12-14T12:34:16;22.07;;;12.33;;
17451;SDS011;8843;48.838;9.324;2023-12-14T12:36:43;25.77;;;13.23;;
17451;SDS011;8843;48.838;9.324;2023-12-14T12:39:10;22.50;;;13.43;;
17451;SDS011;8843;48.838;9.324;2023-12-14T12:41:37;25.10;;;12.30;;
17451;SDS011;8843;48.838;9.324;2023-12-14T12:44:04;21.30;;;12.37;;
17451;SDS011;8843;48.838;9.324;2023-12-14T12:46:33;17.80;;;11.33;;
17451;SDS011;8843;48.838;9.324;2023-12-14T12:49:02;16.70;;;10.13;;
17451;SDS011;8843;48.838;9.324;2023-12-14T12:51:29;18.53;;;11.10;;
17451;SDS011;8843;48.838;9.324;2023-12-14T12:53:57;22.00;;;11.57;;
17451;SDS011;8843;48.838;9.324;2023-12-14T12:56:25;11.10;;;6.40;;
17451;SDS011;8843;48.838;9.324;2023-12-14T12:58:52;7.17;;;4.53;;
17451;SDS011;8843;48.838;9.324;2023-12-14T13:01:19;6.50;;;4.20;;
17451;SDS011;8843;48.838;9.324;2023-12-14T13:03:48;6.50;;;4.10;;
17451;SDS011;8843;48.838;9.324;2023-12-14T13:06:20;6.70;;;4.30;;
17451;SDS011;8843;48.838;9.324;2023-12-14T13:08:47;7.03;;;4.13;;
17451;SDS011;8843;48.838;9.324;2023-12-14T13:11:14;7.23;;;4.90;;
17451;SDS011;8843;48.838;9.324;2023-12-14T13:13:41;8.20;;;5.63;;
17451;SDS011;8843;48.838;9.324;2023-12-14T13:16:08;9.17;;;5.77;;
17451;SDS011;8843;48.838;9.324;2023-12-14T13:18:35;8.20;;;5.57;;
17451;SDS011;8843;48.838;9.324;2023-12-14T13:21:03;8.40;;;5.90;;
17451;SDS011;8843;48.838;9.324;2023-12-14T13:23:31;8.47;;;5.07;;
17451;SDS011;8843;48.838;9.324;2023-12-14T13:25:58;8.47;;;5.50;;
17451;SDS011;8843;48.838;9.324;2023-12-14T13:28:25;8.67;;;6.03;;
17451;SDS011;8843;48.838;9.324;2023-12-14T13:30:52;8.70;;;5.63;;
17451;SDS011;8843;48.838;9.324;2023-12-14T13:33:19;10.87;;;6.07;;
17451;SDS011;8843;48.838;9.324;2023-12-14T13:35:46;6.67;;;5.47;;
17451;SDS011;8843;48.838;9.324;2023-12-14T13:38:13;8.27;;;5.40;;
17451;SDS011;8843;48.838;9.324;2023-12-14T13:40:43;9.40;;;4.90;;
17451;SDS011;8843;48.838;9.324;2023-12-14T13:43:10;6.90;;;4.63;;
17451;SDS011;8843;48.838;9.324;2023-12-14T13:45:37;6.70;;;5.30;;
17451;SDS011;8843;48.838;9.324;2023-12-14T13:48:04;6.53;;;4.83;;
17451;SDS011;8843;48.838;9.324;2023-12-14T13:50:32;4.97;;;3.97;;
17451;SDS011;8843;48.838;9.324;2023-12-14T13:52:59;8.47;;;4.73;;
17451;SDS011;8843;48.838;9.324;2023-12-14T13:55:26;7.03;;;3.70;;
17451;SDS011;8843;48.838;9.324;2023-12-14T13:57:55;6.30;;;4.00;;
17451;SDS011;8843;48.838;9.324;2023-12-14T14:00:23;4.83;;;3.83;;
17451;SDS011;8843;48.838;9.324;2023-12-14T14:02:50;5.63;;;4.00;;
17451;SDS011;8843;48.838;9.324;2023-12-14T14:05:17;4.13;;;3.73;;
17451;SDS011;8843;48.838;9.324;2023-12-14T14:07:44;6.27;;;4.30;;
17451;SDS011;8843;48.838;9.324;2023-12-14T14:10:12;4.30;;;3.60;;
17451;SDS011;8843;48.838;9.324;2023-12-14T14:12:39;5.53;;;3.73;;
17451;SDS011;8843;48.838;9.324;2023-12-14T14:15:08;5.73;;;4.27;;
17451;SDS011;8843;48.838;9.324;2023-12-14T14:17:35;3.90;;;2.77;;
17451;SDS011;8843;48.838;9.324;2023-12-14T14:20:02;4.20;;;3.23;;
17451;SDS011;8843;48.838;9.324;2023-12-14T14:22:31;4.03;;;3.00;;
17451;SDS011;8843;48.838;9.324;2023-12-14T14:24:59;6.00;;;3.57;;
17451;SDS011;8843;48.838;9.324;2023-12-14T14:27:25;3.97;;;3.00;;
17451;SDS011;8843;48.838;9.324;2023-12-14T14:29:53;4.17;;;3.00;;
17451;SDS011;8843;48.838;9.324;2023-12-14T14:32:22;6.30;;;4.07;;
17451;SDS011;8843;48.838;9.324;2023-12-14T14:34:49;4.43;;;3.43;;
17451;SDS011;8843;48.838;9.324;2023-12-14T14:37:18;4.87;;;4.10;;
17451;SDS011;8843;48.838;9.324;2023-12-14T14:39:45;5.00;;;4.30;;
17451;SDS011;8843;48.838;9.324;2023-12-14T14:42:17;9.17;;;6.97;;
17451;SDS011;8843;48.838;9.324;2023-12-14T14:44:45;9.93;;;7.57;;
17451;SDS011;8843;48.838;9.324;2023-12-14T14:47:12;8.07;;;6.40;;
17451;SDS011;8843;48.838;9.324;2023-12-14T14:49:40;7.57;;;5.37;;
17451;SDS011;8843;48.838;9.324;2023-12-14T14:52:07;5.27;;;4.70;;
17451;SDS011;8843;48.838;9.324;2023-12-14T14:54:34;7.77;;;5.13;;
17451;SDS011;8843;48.838;9.324;2023-12-14T14:57:01;8.77;;;5.40;;
17451;SDS011;8843;48.838;9.324;2023-12-14T14:59:30;7.00;;;4.70;;
17451;SDS011;8843;48.838;9.324;2023-12-14T15:01:56;6.73;;;5.30;;
17451;SDS011;8843;48.838;9.324;2023-12-14T15:04:25;7.43;;;4.90;;